createdAt,value
2023-04-14T00:00:36.997Z,29.15
2023-04-14T00:03:04.087Z,29.80
2023-04-14T00:05:31.869Z,29.83
2023-04-14T00:07:58.731Z,30.52
2023-04-14T00:10:26.225Z,31.52
2023-04-14T00:12:53.729Z,33.65
2023-04-14T00:15:20.296Z,29.45
2023-04-14T00:17:46.893Z,30.42
2023-04-14T00:20:13.430Z,31.80
2023-04-14T00:22:39.860Z,30.40
2023-04-14T00:25:06.676Z,31.65
2023-04-14T00:27:33.267Z,30.95
2023-04-14T00:29:59.725Z,31.35
2023-04-14T00:32:26.208Z,34.17
2023-04-14T00:34:52.731Z,32.40
2023-04-14T00:37:19.308Z,32.35
2023-04-14T00:39:45.932Z,32.65
2023-04-14T00:42:12.469Z,33.20
2023-04-14T00:44:38.922Z,34.67
2023-04-14T00:47:05.685Z,33.80
2023-04-14T00:49:32.212Z,33.88
2023-04-14T00:51:59.179Z,33.10
2023-04-14T00:54:25.693Z,33.50
2023-04-14T00:56:53.988Z,33.50
2023-04-14T00:59:20.889Z,33.83
2023-04-14T01:01:47.393Z,32.42
2023-04-14T01:04:14.430Z,32.97
2023-04-14T01:06:41.442Z,33.95
2023-04-14T01:09:09.308Z,33.55
2023-04-14T01:11:55.606Z,35.10
2023-04-14T01:14:52.617Z,34.20
2023-04-14T01:17:29.357Z,34.47
2023-04-14T01:20:37.578Z,35.30
2023-04-14T01:23:22.557Z,33.28
2023-04-14T01:26:17.472Z,35.20
2023-04-14T01:28:56.145Z,34.92
2023-04-14T01:31:27.189Z,34.78
2023-04-14T01:34:03.254Z,35.50
2023-04-14T01:36:51.345Z,35.55
2023-04-14T01:39:21.361Z,36.78
2023-04-14T01:41:56.242Z,36.70
2023-04-14T01:44:25.331Z,35.83
2023-04-14T01:47:04.522Z,35.30
2023-04-14T01:49:34.039Z,35.22
2023-04-14T01:52:04.098Z,33.97
2023-04-14T01:54:31.977Z,34.67
2023-04-14T01:57:01.712Z,35.55
2023-04-14T01:59:30.638Z,36.13
2023-04-14T02:02:00.864Z,35.90
2023-04-14T02:04:29.298Z,35.65
2023-04-14T02:06:59.122Z,36.78
2023-04-14T02:09:28.005Z,34.97
2023-04-14T02:11:55.637Z,36.75
2023-04-14T02:14:23.737Z,35.45
2023-04-14T02:16:52.734Z,35.17
2023-04-14T02:19:21.730Z,35.58
2023-04-14T02:21:50.961Z,36.50
2023-04-14T02:24:18.231Z,35.80
2023-04-14T02:26:53.525Z,34.97
2023-04-14T02:29:23.577Z,34.30
2023-04-14T02:31:57.357Z,35.72
2023-04-14T02:34:28.258Z,34.58
2023-04-14T02:36:57.907Z,35.13
2023-04-14T02:39:34.978Z,35.10
2023-04-14T02:42:08.062Z,36.00
2023-04-14T02:44:38.779Z,35.35
2023-04-14T02:47:08.819Z,35.17
2023-04-14T02:49:43.290Z,35.95
2023-04-14T02:52:11.865Z,35.55
2023-04-14T02:54:41.629Z,34.97
2023-04-14T02:57:08.916Z,37.17
2023-04-14T02:59:36.425Z,36.83
2023-04-14T03:02:05.272Z,35.55
2023-04-14T03:04:36.576Z,36.35
2023-04-14T03:07:04.717Z,36.15
2023-04-14T03:09:32.184Z,36.75
2023-04-14T03:12:01.058Z,36.08
2023-04-14T03:14:28.299Z,36.85
2023-04-14T03:16:56.988Z,36.63
2023-04-14T03:19:24.008Z,40.13
2023-04-14T03:21:51.344Z,38.58
2023-04-14T03:24:24.736Z,37.45
2023-04-14T03:26:58.504Z,38.38
2023-04-14T03:29:36.298Z,37.45
2023-04-14T03:32:06.926Z,39.30
2023-04-14T03:34:35.004Z,38.13
2023-04-14T03:37:04.340Z,39.53
2023-04-14T03:39:34.457Z,39.30
2023-04-14T03:42:08.336Z,38.72
2023-04-14T03:44:37.759Z,38.65
2023-04-14T03:47:08.035Z,39.60
2023-04-14T03:49:39.327Z,39.90
2023-04-14T03:52:08.911Z,39.53
2023-04-14T03:54:39.054Z,38.88
2023-04-14T03:57:08.735Z,39.95
2023-04-14T03:59:38.277Z,39.28
2023-04-14T04:02:06.657Z,45.20
2023-04-14T04:04:35.702Z,39.47
2023-04-14T04:07:02.978Z,42.30
2023-04-14T04:09:31.054Z,40.70
2023-04-14T04:11:59.978Z,40.03
2023-04-14T04:14:29.928Z,40.05
2023-04-14T04:16:59.512Z,39.65
2023-04-14T04:19:26.256Z,39.17
2023-04-14T04:21:57.475Z,37.88
2023-04-14T04:24:27.344Z,39.95
2023-04-14T04:26:54.270Z,41.88
2023-04-14T04:29:22.854Z,39.47
2023-04-14T04:31:49.625Z,42.80
2023-04-14T04:34:19.433Z,38.97
2023-04-14T04:36:47.886Z,40.30
2023-04-14T04:39:17.483Z,41.85
2023-04-14T04:41:43.995Z,41.78
2023-04-14T04:44:10.547Z,40.17
2023-04-14T04:46:53.601Z,40.35
2023-04-14T04:49:20.733Z,40.13
2023-04-14T04:51:47.757Z,40.70
2023-04-14T04:54:14.523Z,44.58
2023-04-14T04:56:41.379Z,41.08
2023-04-14T04:59:07.835Z,44.38
2023-04-14T05:01:34.458Z,41.75
2023-04-14T05:04:01.539Z,42.47
2023-04-14T05:06:28.271Z,41.78
2023-04-14T05:08:55.404Z,44.25
2023-04-14T05:11:22.194Z,44.15
2023-04-14T05:13:48.697Z,42.63
2023-04-14T05:16:15.604Z,41.67
2023-04-14T05:18:42.543Z,43.05
2023-04-14T05:21:10.956Z,41.53
2023-04-14T05:23:38.345Z,41.22
2023-04-14T05:26:26.939Z,40.40
2023-04-14T05:28:52.733Z,41.22
2023-04-14T05:31:20.176Z,42.20
2023-04-14T05:33:46.768Z,42.40
2023-04-14T05:36:13.251Z,42.28
2023-04-14T05:38:42.305Z,44.83
2023-04-14T05:41:09.323Z,42.10
2023-04-14T05:43:35.912Z,44.03
2023-04-14T05:46:02.616Z,43.58
2023-04-14T05:48:33.345Z,43.70
2023-04-14T05:51:00.004Z,49.08
2023-04-14T05:53:27.438Z,46.80
2023-04-14T05:55:54.406Z,44.40
2023-04-14T05:58:21.572Z,42.83
2023-04-14T06:00:48.166Z,43.85
2023-04-14T06:03:16.286Z,49.42
2023-04-14T06:05:43.154Z,64.35
2023-04-14T06:08:09.638Z,55.05
2023-04-14T06:10:36.255Z,51.78
2023-04-14T06:13:02.921Z,51.05
2023-04-14T06:15:29.828Z,54.58
2023-04-14T06:17:56.493Z,50.30
2023-04-14T06:20:23.047Z,58.17
2023-04-14T06:22:49.498Z,54.28
2023-04-14T06:25:16.383Z,47.38
2023-04-14T06:27:43.376Z,55.83
2023-04-14T06:30:10.191Z,56.53
2023-04-14T06:32:36.827Z,53.80
2023-04-14T06:35:04.849Z,52.00
2023-04-14T06:37:32.131Z,52.22
2023-04-14T06:39:58.649Z,50.38
2023-04-14T06:42:25.691Z,54.95
2023-04-14T06:44:52.273Z,53.85
2023-04-14T06:47:19.712Z,51.75
2023-04-14T06:49:46.205Z,51.95
2023-04-14T06:52:12.690Z,51.42
2023-04-14T06:54:40.733Z,58.45
2023-04-14T06:57:07.243Z,50.47
2023-04-14T06:59:33.759Z,51.55
2023-04-14T07:02:00.864Z,55.13
2023-04-14T07:04:27.525Z,51.90
2023-04-14T07:06:59.241Z,47.80
2023-04-14T07:09:25.681Z,44.75
2023-04-14T07:11:53.531Z,46.53
2023-04-14T07:14:20.337Z,43.85
2023-04-14T07:16:47.828Z,42.38
2023-04-14T07:19:15.550Z,41.63
2023-04-14T07:21:41.947Z,40.92
2023-04-14T07:24:09.497Z,39.72
2023-04-14T07:26:36.401Z,39.80
2023-04-14T07:29:03.065Z,37.15
2023-04-14T07:31:33.965Z,36.35
2023-04-14T07:34:02.813Z,35.53
2023-04-14T07:36:30.805Z,36.83
2023-04-14T07:38:57.333Z,39.92
2023-04-14T07:41:25.637Z,36.22
2023-04-14T07:43:55.425Z,39.95
2023-04-14T07:46:22.448Z,35.10
2023-04-14T07:48:49.044Z,32.20
2023-04-14T07:51:15.676Z,34.25
2023-04-14T07:53:43.661Z,34.67
2023-04-14T07:56:10.481Z,29.25
2023-04-14T07:58:37.114Z,28.75
2023-04-14T08:01:04.853Z,29.67
2023-04-14T08:03:31.708Z,27.85
2023-04-14T08:05:58.300Z,29.65
2023-04-14T08:08:25.956Z,26.55
2023-04-14T08:10:52.512Z,25.20
2023-04-14T08:13:18.940Z,24.63
2023-04-14T08:15:45.753Z,24.15
2023-04-14T08:18:12.429Z,22.20
2023-04-14T08:20:38.968Z,20.50
2023-04-14T08:23:05.539Z,20.50
2023-04-14T08:25:32.035Z,23.02
2023-04-14T08:27:58.592Z,20.42
2023-04-14T08:30:25.083Z,17.98
2023-04-14T08:32:51.882Z,18.70
2023-04-14T08:35:38.739Z,20.88
2023-04-14T08:38:04.973Z,17.17
2023-04-14T08:40:40.146Z,17.33
2023-04-14T08:43:07.073Z,15.60
2023-04-14T08:45:34.233Z,18.88
2023-04-14T08:48:02.882Z,21.02
2023-04-14T08:50:37.117Z,13.07
2023-04-14T08:53:08.548Z,15.02
2023-04-14T08:55:39.327Z,15.50
2023-04-14T08:58:08.103Z,12.20
2023-04-14T09:00:35.172Z,12.38
2023-04-14T09:03:02.345Z,12.23
2023-04-14T09:05:29.587Z,15.02
2023-04-14T09:07:56.796Z,15.93
2023-04-14T09:10:23.614Z,12.38
2023-04-14T09:12:50.652Z,16.08
2023-04-14T09:15:17.107Z,12.13
2023-04-14T09:17:44.198Z,14.48
2023-04-14T09:20:37.651Z,12.82
2023-04-14T09:22:58.852Z,14.35
2023-04-14T09:25:26.058Z,13.32
2023-04-14T09:27:52.864Z,15.23
2023-04-14T09:30:20.603Z,15.98
2023-04-14T09:32:57.774Z,15.90
2023-04-14T09:35:43.696Z,15.88
2023-04-14T09:38:10.338Z,13.48
2023-04-14T09:40:39.018Z,13.10
2023-04-14T09:43:05.955Z,15.68
2023-04-14T09:45:45.711Z,12.02
2023-04-14T09:48:13.015Z,18.55
2023-04-14T09:51:10.014Z,12.13
2023-04-14T09:53:38.264Z,17.92
2023-04-14T09:56:07.043Z,15.63
2023-04-14T09:58:36.139Z,11.98
2023-04-14T10:01:05.726Z,13.63
2023-04-14T10:03:40.461Z,14.93
2023-04-14T10:06:19.210Z,13.10
2023-04-14T10:08:48.649Z,13.57
2023-04-14T10:11:29.604Z,12.32
2023-04-14T10:13:58.895Z,14.02
2023-04-14T10:16:26.561Z,13.80
2023-04-14T10:18:54.624Z,12.13
2023-04-14T10:21:24.347Z,14.18
2023-04-14T10:23:51.710Z,11.75
2023-04-14T10:26:19.394Z,10.82
2023-04-14T10:28:53.795Z,10.93
2023-04-14T10:31:20.361Z,11.95
2023-04-14T10:33:47.038Z,11.18
2023-04-14T10:36:23.482Z,11.60
2023-04-14T10:38:50.245Z,15.00
2023-04-14T10:41:19.484Z,12.02
2023-04-14T10:43:45.911Z,13.70
2023-04-14T10:46:12.508Z,12.50
2023-04-14T10:48:41.136Z,11.30
2023-04-14T10:51:09.843Z,17.02
2023-04-14T10:53:48.579Z,11.27
2023-04-14T10:56:15.076Z,13.05
2023-04-14T10:58:42.087Z,15.13
2023-04-14T11:01:22.940Z,15.02
2023-04-14T11:03:49.897Z,13.68
2023-04-14T11:06:48.231Z,16.02
2023-04-14T11:09:32.273Z,13.43
2023-04-14T11:12:23.257Z,14.40
2023-04-14T11:14:54.475Z,12.30
2023-04-14T11:17:24.664Z,12.00
2023-04-14T11:19:55.222Z,13.15
2023-04-14T11:22:39.195Z,12.05
2023-04-14T11:25:08.125Z,11.05
2023-04-14T11:27:35.676Z,14.43
2023-04-14T11:30:02.140Z,13.52
2023-04-14T11:32:28.751Z,14.27
2023-04-14T11:34:55.280Z,10.05
2023-04-14T11:37:22.870Z,12.00
2023-04-14T11:39:50.320Z,12.68
2023-04-14T11:42:17.036Z,10.45
2023-04-14T11:44:43.473Z,11.35
2023-04-14T11:47:09.929Z,15.55
2023-04-14T11:49:37.683Z,11.23
2023-04-14T11:52:06.199Z,13.13
2023-04-14T11:54:39.211Z,11.40
2023-04-14T11:57:13.253Z,12.27
2023-04-14T11:59:44.060Z,15.38
2023-04-14T12:02:18.876Z,11.02
2023-04-14T12:04:49.258Z,14.00
2023-04-14T12:07:18.947Z,12.35
2023-04-14T12:09:47.216Z,15.52
2023-04-14T12:12:16.931Z,13.23
2023-04-14T12:14:48.530Z,14.55
2023-04-14T12:17:16.469Z,16.55
2023-04-14T12:19:44.499Z,12.00
2023-04-14T12:22:11.891Z,13.18
2023-04-14T12:24:43.140Z,11.75
2023-04-14T12:27:10.095Z,11.80
2023-04-14T12:29:37.098Z,12.18
2023-04-14T12:32:14.052Z,11.43
2023-04-14T12:34:40.886Z,12.18
2023-04-14T12:37:09.800Z,13.00
2023-04-14T12:40:00.755Z,11.73
2023-04-14T12:42:28.977Z,13.65
2023-04-14T12:44:57.849Z,12.30
2023-04-14T12:47:33.222Z,12.80
2023-04-14T12:50:02.321Z,12.85
2023-04-14T12:52:40.966Z,13.23
2023-04-14T12:55:19.026Z,13.18
2023-04-14T12:57:45.727Z,12.85
2023-04-14T13:00:13.739Z,12.77
2023-04-14T13:02:43.497Z,12.60
2023-04-14T13:05:12.034Z,12.63
2023-04-14T13:07:38.580Z,12.55
2023-04-14T13:10:05.823Z,12.10
2023-04-14T13:12:32.342Z,12.40
2023-04-14T13:14:58.831Z,11.57
2023-04-14T13:17:25.676Z,11.52
2023-04-14T13:19:52.277Z,12.40
2023-04-14T13:22:18.718Z,12.10
2023-04-14T13:24:45.591Z,12.90
2023-04-14T13:27:12.270Z,12.50
2023-04-14T13:29:41.098Z,12.23
2023-04-14T13:32:12.859Z,11.60
2023-04-14T13:34:40.263Z,12.52
2023-04-14T13:37:06.740Z,11.95
2023-04-14T13:39:33.282Z,11.32
2023-04-14T13:41:59.771Z,11.60
2023-04-14T13:44:26.231Z,12.02
2023-04-14T13:46:53.041Z,12.35
2023-04-14T13:49:19.597Z,11.82
2023-04-14T13:51:46.593Z,11.70
2023-04-14T13:54:13.061Z,12.20
2023-04-14T13:56:39.493Z,11.70
2023-04-14T13:59:06.030Z,11.35
2023-04-14T14:01:32.619Z,12.40
2023-04-14T14:03:59.356Z,11.90
2023-04-14T14:06:26.381Z,11.95
2023-04-14T14:09:06.085Z,11.88
2023-04-14T14:11:33.282Z,12.93
2023-04-14T14:14:00.275Z,12.48
2023-04-14T14:18:56.510Z,11.68
2023-04-14T14:21:22.950Z,12.00
2023-04-14T14:23:49.605Z,11.60
2023-04-14T14:26:16.118Z,13.18
2023-04-14T14:28:42.755Z,12.02
2023-04-14T14:31:09.283Z,12.50
2023-04-14T14:33:35.784Z,11.32
2023-04-14T14:36:02.716Z,11.38
2023-04-14T14:38:29.423Z,11.68
2023-04-14T14:40:55.981Z,11.52
2023-04-14T14:43:22.435Z,11.50
2023-04-14T14:45:48.938Z,11.88
2023-04-14T14:48:17.173Z,12.15
2023-04-14T14:50:43.817Z,11.63
2023-04-14T14:53:10.187Z,11.23
2023-04-14T14:55:36.676Z,11.40
2023-04-14T14:58:04.026Z,11.48
2023-04-14T15:00:30.764Z,11.70
2023-04-14T15:02:57.407Z,11.82
2023-04-14T15:05:23.971Z,11.85
2023-04-14T15:07:50.906Z,11.73
2023-04-14T15:10:17.557Z,11.68
2023-04-14T15:12:44.331Z,12.60
2023-04-14T15:15:11.428Z,11.75
2023-04-14T15:17:37.981Z,12.13
2023-04-14T15:20:04.881Z,13.00
2023-04-14T15:22:32.080Z,12.85
2023-04-14T15:24:58.940Z,13.10
2023-04-14T15:27:25.397Z,15.57
2023-04-14T15:29:52.014Z,13.15
2023-04-14T15:32:27.285Z,13.93
2023-04-14T15:34:54.743Z,13.05
2023-04-14T15:37:21.896Z,13.35
2023-04-14T15:39:48.462Z,13.13
2023-04-14T15:42:15.707Z,12.82
2023-04-14T15:44:45.190Z,12.88
2023-04-14T15:47:12.382Z,12.63
2023-04-14T15:49:39.022Z,13.00
2023-04-14T15:52:06.303Z,13.07
2023-04-14T15:54:33.722Z,13.20
2023-04-14T15:57:00.266Z,13.93
2023-04-14T15:59:28.704Z,13.05
2023-04-14T16:01:56.192Z,13.05
2023-04-14T16:04:24.124Z,12.30
2023-04-14T16:07:02.758Z,12.07
2023-04-14T16:09:29.293Z,12.82
2023-04-14T16:11:56.953Z,13.68
2023-04-14T16:14:23.477Z,13.18
2023-04-14T16:16:50.462Z,14.73
2023-04-14T16:19:17.121Z,13.10
2023-04-14T16:21:43.584Z,12.80
2023-04-14T16:24:10.676Z,12.82
2023-04-14T16:26:38.347Z,11.90
2023-04-14T16:29:05.048Z,12.57
2023-04-14T16:31:31.791Z,13.07
2023-04-14T16:33:58.762Z,12.45
2023-04-14T16:36:26.354Z,12.68
2023-04-14T16:38:53.774Z,12.48
2023-04-14T16:41:20.499Z,12.15
2023-04-14T16:43:47.670Z,11.45
2023-04-14T16:46:14.427Z,11.20
2023-04-14T16:48:41.763Z,11.65
2023-04-14T16:51:09.507Z,11.30
2023-04-14T16:53:37.625Z,11.40
2023-04-14T16:56:08.862Z,11.65
2023-04-14T16:58:38.054Z,11.55
2023-04-14T17:01:06.125Z,11.25
2023-04-14T17:03:33.047Z,11.18
2023-04-14T17:05:59.672Z,10.68
2023-04-14T17:08:26.592Z,11.35
2023-04-14T17:10:53.119Z,11.63
2023-04-14T17:13:19.775Z,11.35
2023-04-14T17:15:49.453Z,13.15
2023-04-14T17:18:19.770Z,11.52
2023-04-14T17:20:46.228Z,11.20
2023-04-14T17:23:13.815Z,11.88
2023-04-14T17:25:41.285Z,11.90
2023-04-14T17:28:07.751Z,12.30
2023-04-14T17:30:36.556Z,12.40
2023-04-14T17:33:04.250Z,12.85
2023-04-14T17:35:31.761Z,13.20
2023-04-14T17:37:58.293Z,13.50
2023-04-14T17:40:25.328Z,13.10
2023-04-14T17:42:52.015Z,12.55
2023-04-14T17:45:23.051Z,14.15
2023-04-14T17:47:51.014Z,13.50
2023-04-14T17:50:18.197Z,14.05
2023-04-14T17:52:45.619Z,14.23
2023-04-14T17:55:12.682Z,13.63
2023-04-14T17:57:39.659Z,14.05
2023-04-14T18:00:09.170Z,14.50
2023-04-14T18:02:38.322Z,15.15
2023-04-14T18:05:09.087Z,15.20
2023-04-14T18:07:36.891Z,15.07
2023-04-14T18:10:03.622Z,15.95
2023-04-14T18:12:30.911Z,16.45
2023-04-14T18:14:57.420Z,16.98
2023-04-14T18:17:24.768Z,17.35
2023-04-14T18:19:51.514Z,18.20
2023-04-14T18:22:18.274Z,19.23
2023-04-14T18:29:43.844Z,20.15
2023-04-14T18:32:10.370Z,21.35
2023-04-14T18:34:36.862Z,20.17
2023-04-14T18:37:04.094Z,19.83
2023-04-14T18:39:37.378Z,19.63
2023-04-14T18:42:04.610Z,20.05
2023-04-14T18:44:31.256Z,24.38
2023-04-14T18:46:57.745Z,21.98
2023-04-14T18:49:24.479Z,23.38
2023-04-14T18:51:51.584Z,23.95
2023-04-14T18:54:18.858Z,23.92
2023-04-14T18:56:45.976Z,21.77
2023-04-14T18:59:12.653Z,22.27
2023-04-14T19:01:39.452Z,23.65
2023-04-14T19:04:07.779Z,23.13
2023-04-14T19:06:34.675Z,25.65
2023-04-14T19:09:01.778Z,27.63
2023-04-14T19:11:28.979Z,24.50
2023-04-14T19:13:55.682Z,23.80
2023-04-14T19:16:22.628Z,24.75
2023-04-14T19:18:49.363Z,25.83
2023-04-14T19:21:16.212Z,25.50
2023-04-14T19:23:43.142Z,25.60
2023-04-14T19:26:11.387Z,26.42
2023-04-14T19:28:42.357Z,27.98
2023-04-14T19:31:09.106Z,28.38
2023-04-14T19:33:35.663Z,26.50
2023-04-14T19:36:02.500Z,30.60
2023-04-14T19:38:29.058Z,24.88
2023-04-14T19:40:56.334Z,24.10
2023-04-14T19:43:22.945Z,28.88
2023-04-14T19:45:53.873Z,24.08
2023-04-14T19:48:23.773Z,27.30
2023-04-14T19:50:54.692Z,27.50
2023-04-14T19:53:23.348Z,27.35
2023-04-14T19:55:51.186Z,28.02
2023-04-14T19:58:21.679Z,25.13
2023-04-14T20:00:51.418Z,24.83
2023-04-14T20:03:19.331Z,25.77
2023-04-14T20:05:50.122Z,27.80
2023-04-14T20:08:17.073Z,27.10
2023-04-14T20:10:43.612Z,26.55
2023-04-14T20:13:10.213Z,32.05
2023-04-14T20:15:40.124Z,26.63
2023-04-14T20:18:06.560Z,26.27
2023-04-14T20:20:33.305Z,31.63
2023-04-14T20:23:01.582Z,29.40
2023-04-14T20:25:28.114Z,25.52
2023-04-14T20:27:54.679Z,26.48
2023-04-14T20:30:21.958Z,28.77
2023-04-14T20:32:48.904Z,24.67
2023-04-14T20:35:15.621Z,22.00
2023-04-14T20:37:42.199Z,22.77
2023-04-14T20:40:08.901Z,20.27
2023-04-14T20:42:35.652Z,23.65
2023-04-14T20:45:02.130Z,21.80
2023-04-14T20:47:28.750Z,19.23
2023-04-14T20:49:55.412Z,19.75
2023-04-14T20:52:22.890Z,18.70
2023-04-14T20:54:49.512Z,17.90
2023-04-14T20:57:15.933Z,18.35
2023-04-14T20:59:42.881Z,18.38
2023-04-14T21:02:09.504Z,18.58
2023-04-14T21:04:36.052Z,19.00
2023-04-14T21:07:03.717Z,18.30
2023-04-14T21:09:30.229Z,20.45
2023-04-14T21:12:14.685Z,18.52
2023-04-14T21:15:44.218Z,18.27
2023-04-14T21:17:29.176Z,18.70
2023-04-14T21:19:56.015Z,19.00
2023-04-14T21:22:22.543Z,19.98
2023-04-14T21:24:49.668Z,19.00
2023-04-14T21:27:17.272Z,18.15
2023-04-14T21:29:44.613Z,17.92
2023-04-14T21:32:11.450Z,18.92
2023-04-14T21:34:37.960Z,19.35
2023-04-14T21:37:04.617Z,19.15
2023-04-14T21:39:33.260Z,18.45
2023-04-14T21:42:00.447Z,17.25
2023-04-14T21:44:27.539Z,17.35
2023-04-14T21:46:54.843Z,24.35
2023-04-14T21:49:22.060Z,23.67
2023-04-14T21:51:50.424Z,20.83
2023-04-14T21:54:17.113Z,18.15
2023-04-14T21:56:43.658Z,20.05
2023-04-14T21:59:10.276Z,18.48
2023-04-14T22:01:36.906Z,22.23
2023-04-14T22:04:03.565Z,23.42
2023-04-14T22:06:30.218Z,20.85
2023-04-14T22:08:56.672Z,19.45
2023-04-14T22:11:23.215Z,18.83
2023-04-14T22:13:49.782Z,23.90
2023-04-14T22:16:16.451Z,21.83
2023-04-14T22:18:43.028Z,20.92
2023-04-14T22:21:10.493Z,20.02
2023-04-14T22:23:38.565Z,20.33
2023-04-14T22:26:05.175Z,22.40
2023-04-14T22:28:31.712Z,21.77
2023-04-14T22:30:58.178Z,18.25
2023-04-14T22:33:24.649Z,19.05
2023-04-14T22:35:51.202Z,19.67
2023-04-14T22:38:17.638Z,20.30
2023-04-14T22:40:44.200Z,18.42
2023-04-14T22:43:10.805Z,20.85
2023-04-14T22:45:38.694Z,17.38
2023-04-14T22:48:06.798Z,17.67
2023-04-14T22:50:33.828Z,20.10
2023-04-14T22:53:00.899Z,17.48
2023-04-14T22:55:27.619Z,19.50
2023-04-14T22:57:54.220Z,17.08
2023-04-14T23:00:21.590Z,17.73
2023-04-14T23:02:51.610Z,17.10
2023-04-14T23:05:18.925Z,16.55
2023-04-14T23:07:45.627Z,15.88
2023-04-14T23:10:12.085Z,14.77
2023-04-14T23:12:41.594Z,13.57
2023-04-14T23:15:08.586Z,13.45
2023-04-14T23:17:35.271Z,15.13
2023-04-14T23:20:02.458Z,13.77
2023-04-14T23:22:29.578Z,13.63
2023-04-14T23:24:56.095Z,13.65
2023-04-14T23:27:23.027Z,14.63
2023-04-14T23:29:49.555Z,16.58
2023-04-14T23:32:16.263Z,13.68
2023-04-14T23:34:49.320Z,14.77
2023-04-14T23:37:15.786Z,13.57
2023-04-14T23:39:42.227Z,14.48
2023-04-14T23:42:08.847Z,15.60
2023-04-14T23:44:35.354Z,16.08
2023-04-14T23:47:01.970Z,16.05
2023-04-14T23:49:34.067Z,14.43
2023-04-14T23:52:02.199Z,15.13
2023-04-14T23:54:30.679Z,13.82
2023-04-14T23:56:57.227Z,13.75
2023-04-14T23:59:23.690Z,15.07
